createdAt,value
2018-03-15T00:00:27.640Z,98.90
2018-03-15T00:01:00.388Z,99.00
2018-03-15T00:01:32.933Z,99.00
2018-03-15T00:02:05.441Z,99.00
2018-03-15T00:02:37.953Z,98.80
2018-03-15T00:03:16.960Z,98.90
2018-03-15T00:03:49.477Z,98.60
2018-03-15T00:04:21.988Z,98.70
2018-03-15T00:04:54.495Z,98.50
2018-03-15T00:05:27.066Z,98.50
2018-03-15T00:05:59.567Z,98.60
2018-03-15T00:06:32.086Z,98.70
2018-03-15T00:07:04.698Z,98.90
2018-03-15T00:07:37.297Z,98.80
2018-03-15T00:08:09.806Z,98.90
2018-03-15T00:08:42.337Z,98.80
2018-03-15T00:09:14.850Z,98.70
2018-03-15T00:09:48.178Z,98.60
2018-03-15T00:10:20.684Z,98.60
2018-03-15T00:10:53.326Z,98.50
2018-03-15T00:11:25.835Z,98.60
2018-03-15T00:11:58.430Z,98.70
2018-03-15T00:12:30.946Z,98.70
2018-03-15T00:13:03.487Z,98.70
2018-03-15T00:13:36.038Z,98.70
2018-03-15T00:14:08.542Z,98.70
2018-03-15T00:14:41.061Z,98.70
2018-03-15T00:15:13.818Z,98.60
2018-03-15T00:15:46.331Z,98.50
2018-03-15T00:16:18.871Z,98.60
2018-03-15T00:16:51.432Z,98.60
2018-03-15T00:17:24.075Z,98.70
2018-03-15T00:17:56.644Z,98.80
2018-03-15T00:18:29.163Z,98.70
2018-03-15T00:19:01.689Z,98.70
2018-03-15T00:19:34.211Z,98.80
2018-03-15T00:20:07.537Z,98.90
2018-03-15T00:20:40.020Z,98.90
2018-03-15T00:21:12.522Z,98.90
2018-03-15T00:21:45.819Z,99.10
2018-03-15T00:22:18.312Z,99.00
2018-03-15T00:22:51.041Z,99.20
2018-03-15T00:23:23.569Z,99.50
2018-03-15T00:23:56.080Z,99.80
2018-03-15T00:24:28.609Z,99.20
2018-03-15T00:25:01.216Z,99.00
2018-03-15T00:25:33.728Z,99.10
2018-03-15T00:26:06.245Z,99.10
2018-03-15T00:26:38.894Z,99.20
2018-03-15T00:27:11.409Z,99.30
2018-03-15T00:27:44.114Z,99.30
2018-03-15T00:28:16.636Z,99.30
2018-03-15T00:28:49.169Z,99.10
2018-03-15T00:29:21.677Z,99.20
2018-03-15T00:29:54.945Z,99.60
2018-03-15T00:30:27.453Z,99.50
2018-03-15T00:31:00.008Z,99.50
2018-03-15T00:31:32.522Z,99.30
2018-03-15T00:32:05.030Z,99.30
2018-03-15T00:32:38.307Z,99.40
2018-03-15T00:33:10.896Z,99.40
2018-03-15T00:33:43.560Z,99.50
2018-03-15T00:34:16.361Z,99.40
2018-03-15T00:34:48.874Z,99.40
2018-03-15T00:35:21.379Z,99.40
2018-03-15T00:35:53.990Z,99.40
2018-03-15T00:36:26.500Z,99.50
2018-03-15T00:36:59.019Z,99.50
2018-03-15T00:37:32.307Z,99.70
2018-03-15T00:38:04.865Z,99.70
2018-03-15T00:38:37.382Z,99.70
2018-03-15T00:39:09.919Z,99.50
2018-03-15T00:39:42.707Z,99.50
2018-03-15T00:40:15.216Z,99.50
2018-03-15T00:40:47.727Z,99.50
2018-03-15T00:41:20.256Z,99.50
2018-03-15T00:41:52.821Z,99.60
2018-03-15T00:42:25.324Z,99.60
2018-03-15T00:42:57.839Z,99.60
2018-03-15T00:43:31.118Z,99.30
2018-03-15T00:44:03.624Z,99.30
2018-03-15T00:44:36.130Z,99.30
2018-03-15T00:45:08.845Z,99.20
2018-03-15T00:45:41.394Z,99.40
2018-03-15T00:46:13.892Z,99.40
2018-03-15T00:46:46.533Z,99.30
2018-03-15T00:47:19.038Z,99.30
2018-03-15T00:47:51.554Z,99.30
2018-03-15T00:48:24.210Z,99.40
2018-03-15T00:48:56.723Z,99.40
2018-03-15T00:49:29.263Z,99.30
2018-03-15T00:50:01.789Z,99.20
2018-03-15T00:50:35.071Z,99.30
2018-03-15T00:51:07.586Z,99.20
2018-03-15T00:51:40.100Z,99.10
2018-03-15T00:52:13.381Z,99.20
2018-03-15T00:52:45.952Z,99.20
2018-03-15T00:53:18.514Z,99.00
2018-03-15T00:53:51.033Z,99.00
2018-03-15T00:54:23.534Z,99.00
2018-03-15T00:54:56.815Z,99.20
2018-03-15T00:55:29.324Z,99.20
2018-03-15T00:56:02.033Z,99.10
2018-03-15T00:56:34.754Z,99.00
2018-03-15T00:57:07.320Z,99.30
2018-03-15T00:57:39.963Z,99.30
2018-03-15T00:58:12.632Z,99.30
2018-03-15T00:58:45.154Z,99.20
2018-03-15T00:59:17.957Z,99.30
2018-03-15T00:59:50.499Z,99.40
2018-03-15T01:00:23.019Z,99.30
2018-03-15T01:00:55.598Z,99.30
2018-03-15T01:01:28.150Z,99.40
2018-03-15T01:02:00.777Z,99.40
2018-03-15T01:02:33.346Z,99.80
2018-03-15T01:03:05.898Z,99.50
2018-03-15T01:03:38.447Z,99.50
2018-03-15T01:04:11.120Z,99.50
2018-03-15T01:04:43.631Z,99.40
2018-03-15T01:05:16.185Z,99.40
2018-03-15T01:05:48.696Z,99.40
2018-03-15T01:06:21.222Z,99.30
2018-03-15T01:06:53.750Z,99.20
2018-03-15T01:07:26.287Z,99.40
2018-03-15T01:07:59.570Z,99.70
2018-03-15T01:08:32.076Z,99.40
2018-03-15T01:09:04.583Z,99.50
2018-03-15T01:09:37.085Z,99.40
2018-03-15T01:10:09.765Z,99.60
2018-03-15T01:10:42.699Z,99.70
2018-03-15T01:11:15.970Z,99.60
2018-03-15T01:11:48.677Z,99.50
2018-03-15T01:12:21.222Z,99.40
2018-03-15T01:12:54.631Z,99.60
2018-03-15T01:13:27.151Z,99.60
2018-03-15T01:13:59.866Z,99.70
2018-03-15T01:14:32.436Z,99.80
2018-03-15T01:15:04.952Z,99.80
2018-03-15T01:15:38.246Z,99.90
2018-03-15T01:16:10.764Z,99.80
2018-03-15T01:16:43.295Z,99.90
2018-03-15T01:17:16.015Z,99.80
2018-03-15T01:17:48.547Z,99.80
2018-03-15T01:18:21.087Z,99.90
2018-03-15T01:18:53.752Z,99.90
2018-03-15T01:19:26.434Z,99.90
2018-03-15T01:20:37.875Z,99.80
2018-03-15T01:21:10.391Z,99.60
2018-03-15T01:21:42.908Z,99.70
2018-03-15T01:22:15.445Z,99.70
2018-03-15T01:22:47.978Z,99.60
2018-03-15T01:23:20.551Z,99.60
2018-03-15T01:23:53.193Z,99.50
2018-03-15T01:24:25.723Z,99.50
2018-03-15T01:24:58.240Z,99.80
2018-03-15T01:25:30.746Z,99.60
2018-03-15T01:26:03.264Z,99.60
2018-03-15T01:26:35.997Z,99.60
2018-03-15T01:27:08.560Z,99.60
2018-03-15T01:27:41.125Z,99.60
2018-03-15T01:28:13.662Z,99.60
2018-03-15T01:28:46.170Z,99.70
2018-03-15T01:29:18.681Z,99.70
2018-03-15T01:29:51.971Z,99.70
2018-03-15T01:30:24.485Z,99.70
2018-03-15T01:30:57.075Z,99.70
2018-03-15T01:31:29.590Z,99.80
2018-03-15T01:32:02.119Z,99.80
2018-03-15T01:32:35.394Z,99.40
2018-03-15T01:33:07.893Z,99.40
2018-03-15T01:33:40.423Z,99.60
2018-03-15T01:34:13.726Z,99.70
2018-03-15T01:34:46.221Z,99.70
2018-03-15T01:35:18.720Z,99.70
2018-03-15T01:35:51.232Z,99.80
2018-03-15T01:36:23.741Z,99.90
2018-03-15T01:36:56.559Z,99.90
2018-03-15T01:37:29.093Z,99.90
2018-03-15T01:38:01.601Z,99.80
2018-03-15T01:38:34.102Z,99.90
2018-03-15T01:39:06.737Z,99.90
2018-03-15T01:39:39.281Z,99.90
2018-03-15T01:40:11.799Z,99.80
2018-03-15T01:40:44.313Z,99.70
2018-03-15T01:41:17.054Z,99.90
2018-03-15T01:41:49.573Z,99.80
2018-03-15T01:42:22.082Z,99.80
2018-03-15T01:42:54.594Z,99.80
2018-03-15T01:43:27.101Z,99.70
2018-03-15T01:43:59.628Z,99.60
2018-03-15T01:44:32.454Z,99.60
2018-03-15T01:45:04.983Z,99.60
2018-03-15T01:45:37.582Z,99.70
2018-03-15T01:46:10.093Z,99.80
2018-03-15T01:46:42.708Z,99.80
2018-03-15T01:47:15.260Z,99.90
2018-03-15T01:47:47.772Z,99.90
2018-03-15T01:48:20.274Z,99.90
2018-03-15T01:48:53.554Z,99.90
2018-03-15T01:49:26.249Z,99.90
2018-03-15T01:49:58.813Z,99.90
2018-03-15T01:50:31.637Z,99.90
2018-03-15T01:51:04.150Z,99.80
2018-03-15T01:51:36.653Z,99.90
2018-03-15T01:52:09.166Z,99.80
2018-03-15T01:52:41.684Z,99.80
2018-03-15T01:53:14.314Z,99.80
2018-03-15T01:53:46.823Z,99.90
2018-03-15T01:54:20.171Z,99.80
2018-03-15T01:54:52.698Z,99.90
2018-03-15T01:55:25.376Z,99.90
2018-03-15T01:55:57.918Z,99.90
2018-03-15T01:56:30.626Z,99.90
2018-03-15T01:57:03.265Z,99.90
2018-03-15T01:57:35.831Z,99.80
2018-03-15T01:58:08.342Z,99.90
2018-03-15T01:58:40.854Z,99.90
2018-03-15T01:59:13.523Z,99.80
2018-03-15T01:59:46.033Z,99.80
2018-03-15T02:00:18.653Z,99.90
2018-03-15T02:00:51.192Z,99.90
2018-03-15T02:01:23.779Z,99.90
2018-03-15T02:01:56.327Z,99.90
2018-03-15T02:02:28.827Z,99.90
2018-03-15T02:03:01.339Z,99.90
2018-03-15T02:03:34.618Z,99.80
2018-03-15T02:04:07.144Z,99.80
2018-03-15T02:04:39.722Z,99.90
2018-03-15T02:05:12.252Z,99.90
2018-03-15T02:05:44.933Z,99.90
2018-03-15T02:06:17.450Z,99.90
2018-03-15T02:06:49.961Z,99.90
2018-03-15T02:07:22.466Z,99.90
2018-03-15T02:07:55.751Z,99.90
2018-03-15T02:08:28.260Z,99.90
2018-03-15T02:09:00.906Z,99.90
2018-03-15T02:09:33.419Z,99.80
2018-03-15T02:10:06.004Z,99.80
2018-03-15T02:10:38.522Z,99.90
2018-03-15T02:11:11.033Z,99.90
2018-03-15T02:11:44.354Z,99.90
2018-03-15T02:12:16.867Z,99.90
2018-03-15T02:12:49.380Z,99.90
2018-03-15T02:13:21.914Z,99.90
2018-03-15T02:13:55.213Z,99.90
2018-03-15T02:14:27.722Z,99.90
2018-03-15T02:15:00.226Z,99.90
2018-03-15T02:15:32.742Z,99.90
2018-03-15T02:16:05.399Z,99.90
2018-03-15T02:16:37.905Z,99.90
2018-03-15T02:17:11.196Z,99.90
2018-03-15T02:17:43.705Z,99.90
2018-03-15T02:18:16.213Z,99.90
2018-03-15T02:18:49.490Z,99.90
2018-03-15T02:19:21.993Z,99.90
2018-03-15T02:19:54.755Z,99.90
2018-03-15T02:20:27.507Z,99.90
2018-03-15T02:21:00.076Z,99.90
2018-03-15T02:21:32.582Z,99.90
2018-03-15T02:22:05.097Z,99.90
2018-03-15T02:22:37.638Z,99.90
2018-03-15T02:23:10.940Z,99.90
2018-03-15T02:23:43.449Z,99.90
2018-03-15T02:24:16.083Z,99.90
2018-03-15T02:24:48.647Z,99.90
2018-03-15T02:25:21.314Z,99.90
2018-03-15T02:25:53.985Z,99.90
2018-03-15T02:26:26.541Z,99.90
2018-03-15T02:26:59.046Z,99.90
2018-03-15T02:27:31.549Z,99.90
2018-03-15T02:28:04.081Z,99.90
2018-03-15T02:28:36.594Z,99.90
2018-03-15T02:29:09.146Z,99.90
2018-03-15T02:29:41.674Z,99.90
2018-03-15T02:30:14.189Z,99.90
2018-03-15T02:30:46.768Z,99.90
2018-03-15T02:31:19.278Z,99.90
2018-03-15T02:31:52.562Z,99.90
2018-03-15T02:32:25.089Z,99.90
2018-03-15T02:32:57.593Z,99.90
2018-03-15T02:33:30.904Z,99.90
2018-03-15T02:34:03.402Z,99.90
2018-03-15T02:34:36.013Z,99.90
2018-03-15T02:35:08.674Z,99.90
2018-03-15T02:35:41.380Z,99.90
2018-03-15T02:36:13.902Z,99.90
2018-03-15T02:36:47.175Z,99.90
2018-03-15T02:37:19.702Z,99.90
2018-03-15T02:37:52.215Z,99.90
2018-03-15T02:38:25.492Z,99.90
2018-03-15T02:38:58.015Z,99.90
2018-03-15T02:39:30.620Z,99.90
2018-03-15T02:40:03.120Z,99.90
2018-03-15T02:40:35.726Z,99.90
2018-03-15T02:41:09.006Z,99.90
2018-03-15T02:41:41.547Z,99.90
2018-03-15T02:42:14.064Z,99.90
2018-03-15T02:42:46.747Z,99.90
2018-03-15T02:43:19.310Z,99.90
2018-03-15T02:43:51.977Z,99.90
2018-03-15T02:44:24.509Z,99.90
2018-03-15T02:44:57.792Z,99.90
2018-03-15T02:45:30.305Z,99.90
2018-03-15T02:46:02.946Z,99.90
2018-03-15T02:46:35.447Z,99.90
2018-03-15T02:47:07.971Z,99.90
2018-03-15T02:47:40.742Z,99.90
2018-03-15T02:48:13.307Z,99.90
2018-03-15T02:48:45.822Z,99.90
2018-03-15T02:49:18.636Z,99.90
2018-03-15T02:49:51.196Z,99.90
2018-03-15T02:50:23.702Z,99.90
2018-03-15T02:50:56.219Z,99.90
2018-03-15T02:51:28.729Z,99.90
2018-03-15T02:52:01.237Z,99.90
2018-03-15T02:52:33.753Z,99.90
2018-03-15T02:53:06.295Z,99.90
2018-03-15T02:53:38.794Z,99.90
2018-03-15T02:54:11.306Z,99.90
2018-03-15T02:54:43.914Z,99.90
2018-03-15T02:55:16.620Z,99.90
2018-03-15T02:55:49.322Z,99.90
2018-03-15T02:56:22.054Z,99.90
2018-03-15T02:56:54.558Z,99.90
2018-03-15T02:57:27.063Z,99.90
2018-03-15T02:57:59.569Z,99.90
2018-03-15T02:58:32.077Z,99.90
2018-03-15T02:59:04.587Z,99.90
2018-03-15T02:59:37.112Z,99.90
2018-03-15T03:00:09.622Z,99.90
2018-03-15T03:00:42.155Z,99.90
2018-03-15T03:01:14.666Z,99.90
2018-03-15T03:01:47.172Z,99.90
2018-03-15T03:02:20.454Z,99.90
2018-03-15T03:02:53.032Z,99.90
2018-03-15T03:03:25.850Z,99.90
2018-03-15T03:03:58.387Z,99.90
2018-03-15T03:04:30.894Z,99.90
2018-03-15T03:05:03.423Z,99.90
2018-03-15T03:05:36.127Z,99.90
2018-03-15T03:06:08.655Z,99.90
2018-03-15T03:06:41.293Z,99.90
2018-03-15T03:07:13.858Z,99.90
2018-03-15T03:07:46.382Z,99.90
2018-03-15T03:08:19.097Z,99.90
2018-03-15T03:08:51.599Z,99.90
2018-03-15T03:09:24.112Z,99.90
2018-03-15T03:09:56.678Z,99.90
2018-03-15T03:10:29.243Z,99.90
2018-03-15T03:11:01.753Z,99.90
2018-03-15T03:11:34.279Z,99.90
2018-03-15T03:12:06.797Z,99.90
2018-03-15T03:12:40.224Z,99.90
2018-03-15T03:13:12.996Z,99.90
2018-03-15T03:13:45.509Z,99.90
2018-03-15T03:14:18.038Z,99.90
2018-03-15T03:14:50.544Z,99.90
2018-03-15T03:15:23.050Z,99.90
2018-03-15T03:15:55.564Z,99.90
2018-03-15T03:16:28.097Z,99.90
2018-03-15T03:17:00.618Z,99.90
2018-03-15T03:17:33.129Z,99.90
2018-03-15T03:18:05.634Z,99.90
2018-03-15T03:18:38.943Z,99.90
2018-03-15T03:19:11.609Z,99.90
2018-03-15T03:19:44.117Z,99.90
2018-03-15T03:20:16.628Z,99.90
2018-03-15T03:20:49.141Z,99.90
2018-03-15T03:21:22.411Z,99.90
2018-03-15T03:21:54.913Z,99.90
2018-03-15T03:22:27.438Z,99.90
2018-03-15T03:22:59.986Z,99.90
2018-03-15T03:23:32.731Z,99.90
2018-03-15T03:24:05.262Z,99.90
2018-03-15T03:24:37.773Z,99.90
2018-03-15T03:25:10.294Z,99.90
2018-03-15T03:25:42.806Z,99.90
2018-03-15T03:26:15.313Z,99.90
2018-03-15T03:26:48.590Z,99.90
2018-03-15T03:27:21.103Z,99.90
2018-03-15T03:27:53.756Z,99.90
2018-03-15T03:28:26.256Z,99.90
2018-03-15T03:28:58.754Z,99.90
2018-03-15T03:29:32.054Z,99.90
2018-03-15T03:30:04.570Z,99.90
2018-03-15T03:30:37.094Z,99.90
2018-03-15T03:31:09.597Z,99.90
2018-03-15T03:31:42.114Z,99.90
2018-03-15T03:32:14.804Z,99.90
2018-03-15T03:32:47.394Z,99.90
2018-03-15T03:33:19.929Z,99.90
2018-03-15T03:33:52.446Z,99.90
2018-03-15T03:34:25.726Z,99.90
2018-03-15T03:34:58.267Z,99.90
2018-03-15T03:35:30.776Z,99.90
2018-03-15T03:36:03.286Z,99.90
2018-03-15T03:36:35.798Z,99.90
2018-03-15T03:37:08.311Z,99.90
2018-03-15T03:37:40.845Z,99.90
2018-03-15T03:38:13.367Z,99.90
2018-03-15T03:38:45.890Z,99.90
2018-03-15T03:39:18.448Z,99.90
2018-03-15T03:39:50.964Z,99.90
2018-03-15T03:40:24.269Z,99.90
2018-03-15T03:40:56.794Z,99.90
2018-03-15T03:41:29.312Z,99.90
2018-03-15T03:42:01.827Z,99.90
2018-03-15T03:42:35.101Z,99.90
2018-03-15T03:43:07.614Z,99.90
2018-03-15T03:43:40.132Z,99.90
2018-03-15T03:44:13.448Z,99.90
2018-03-15T03:44:46.112Z,99.90
2018-03-15T03:45:18.797Z,99.90
2018-03-15T03:45:51.310Z,99.90
2018-03-15T03:46:24.589Z,99.90
2018-03-15T03:46:57.117Z,99.90
2018-03-15T03:47:29.847Z,99.90
2018-03-15T03:48:02.419Z,99.90
2018-03-15T03:48:35.103Z,99.90
2018-03-15T03:49:07.610Z,99.90
2018-03-15T03:49:40.165Z,99.90
2018-03-15T03:50:12.884Z,99.90
2018-03-15T03:50:45.438Z,99.90
2018-03-15T03:51:17.951Z,99.90
2018-03-15T03:51:50.462Z,99.90
2018-03-15T03:52:22.995Z,99.90
2018-03-15T03:52:56.308Z,99.90
2018-03-15T03:53:28.872Z,99.90
2018-03-15T03:54:01.391Z,99.90
2018-03-15T03:54:33.906Z,99.90
2018-03-15T03:55:06.439Z,99.90
2018-03-15T03:55:39.714Z,99.90
2018-03-15T03:56:12.244Z,99.90
2018-03-15T03:56:44.865Z,99.90
2018-03-15T03:57:17.430Z,99.90
2018-03-15T03:57:49.941Z,99.90
2018-03-15T03:58:22.455Z,99.90
2018-03-15T03:58:55.107Z,99.90
2018-03-15T03:59:27.615Z,99.90
2018-03-15T04:00:00.362Z,99.90
2018-03-15T04:00:32.869Z,99.90
2018-03-15T04:01:05.381Z,99.90
2018-03-15T04:01:37.897Z,99.90
2018-03-15T04:02:10.412Z,99.90
2018-03-15T04:02:42.918Z,99.90
2018-03-15T04:03:15.630Z,99.90
2018-03-15T04:03:48.197Z,99.90
2018-03-15T04:04:20.718Z,99.90
2018-03-15T04:04:54.187Z,99.90
2018-03-15T04:05:26.730Z,99.90
2018-03-15T04:05:59.268Z,99.90
2018-03-15T04:06:32.546Z,99.90
2018-03-15T04:07:05.058Z,99.90
2018-03-15T04:07:37.604Z,99.90
2018-03-15T04:08:10.119Z,99.90
2018-03-15T04:08:43.380Z,99.90
2018-03-15T04:09:15.894Z,99.90
2018-03-15T04:09:48.402Z,99.90
2018-03-15T04:10:20.919Z,99.90
2018-03-15T04:10:53.607Z,99.90
2018-03-15T04:11:26.164Z,99.90
2018-03-15T04:11:58.770Z,99.90
2018-03-15T04:12:31.274Z,99.90
2018-03-15T04:13:03.782Z,99.90
2018-03-15T04:13:36.295Z,99.90
2018-03-15T04:14:08.806Z,99.90
2018-03-15T04:14:41.311Z,99.90
2018-03-15T04:15:14.003Z,99.90
2018-03-15T04:15:46.585Z,99.90
2018-03-15T04:16:19.249Z,99.90
2018-03-15T04:16:51.891Z,99.90
2018-03-15T04:17:24.400Z,99.90
2018-03-15T04:17:57.005Z,99.90
2018-03-15T04:18:29.514Z,99.90
2018-03-15T04:19:02.040Z,99.90
2018-03-15T04:19:34.546Z,99.90
2018-03-15T04:20:07.191Z,99.90
2018-03-15T04:20:39.753Z,99.90
2018-03-15T04:21:12.258Z,99.90
2018-03-15T04:21:44.773Z,99.90
2018-03-15T04:22:17.366Z,99.90
2018-03-15T04:22:50.092Z,99.90
2018-03-15T04:23:22.611Z,99.90
2018-03-15T04:23:55.146Z,99.90
2018-03-15T04:24:27.660Z,99.90
2018-03-15T04:25:00.954Z,99.90
2018-03-15T04:25:33.470Z,99.90
2018-03-15T04:26:05.988Z,99.90
2018-03-15T04:26:38.497Z,99.90
2018-03-15T04:27:11.336Z,99.90
2018-03-15T04:27:44.189Z,99.90
2018-03-15T04:28:16.708Z,99.90
2018-03-15T04:28:49.233Z,99.90
2018-03-15T04:29:21.734Z,99.90
2018-03-15T04:29:54.245Z,99.90
2018-03-15T04:30:26.749Z,99.90
2018-03-15T04:30:59.259Z,99.90
2018-03-15T04:31:31.790Z,99.90
2018-03-15T04:32:04.293Z,99.90
2018-03-15T04:32:36.802Z,99.90
2018-03-15T04:33:09.420Z,99.90
2018-03-15T04:33:41.939Z,99.90
2018-03-15T04:34:15.280Z,99.90
2018-03-15T04:34:47.963Z,99.90
2018-03-15T04:35:20.595Z,99.90
2018-03-15T04:35:53.107Z,99.90
2018-03-15T04:36:25.621Z,99.90
2018-03-15T04:36:58.291Z,99.90
2018-03-15T04:37:30.797Z,99.90
2018-03-15T04:38:03.302Z,99.90
2018-03-15T04:38:36.591Z,99.90
2018-03-15T04:39:09.116Z,99.90
2018-03-15T04:39:41.840Z,99.90
2018-03-15T04:40:14.519Z,99.90
2018-03-15T04:40:47.114Z,99.90
2018-03-15T04:41:19.621Z,99.90
2018-03-15T04:41:52.286Z,99.90
2018-03-15T04:42:24.796Z,99.90
2018-03-15T04:42:57.313Z,99.90
2018-03-15T04:43:29.822Z,99.90
2018-03-15T04:44:02.491Z,99.90
2018-03-15T04:44:34.997Z,99.90
2018-03-15T04:45:08.402Z,99.90
2018-03-15T04:45:40.919Z,99.90
2018-03-15T04:46:13.431Z,99.90
2018-03-15T04:46:45.935Z,99.90
2018-03-15T04:47:18.437Z,99.90
2018-03-15T04:47:51.719Z,99.90
2018-03-15T04:48:24.254Z,99.90
2018-03-15T04:48:56.804Z,99.90
2018-03-15T04:49:29.468Z,99.90
2018-03-15T04:50:01.977Z,99.90
2018-03-15T04:50:34.656Z,99.90
2018-03-15T04:51:07.173Z,99.90
2018-03-15T04:51:39.682Z,99.90
2018-03-15T04:52:12.187Z,99.90
2018-03-15T04:52:44.805Z,99.90
2018-03-15T04:53:17.313Z,99.90
2018-03-15T04:53:49.852Z,99.90
2018-03-15T04:54:22.500Z,99.90
2018-03-15T04:54:55.026Z,99.90
2018-03-15T04:55:27.533Z,99.90
2018-03-15T04:56:00.028Z,99.90
2018-03-15T04:56:33.425Z,99.90
2018-03-15T04:57:05.933Z,99.90
2018-03-15T04:57:38.449Z,99.90
2018-03-15T04:58:10.962Z,99.90
2018-03-15T04:58:43.544Z,99.90
2018-03-15T04:59:16.191Z,99.90
2018-03-15T04:59:48.703Z,99.90
2018-03-15T05:00:21.230Z,99.90
2018-03-15T05:00:53.818Z,99.90
2018-03-15T05:01:26.329Z,99.90
2018-03-15T05:01:58.850Z,99.90
2018-03-15T05:02:31.639Z,99.90
2018-03-15T05:03:04.449Z,99.90
2018-03-15T05:03:37.129Z,99.90
2018-03-15T05:04:09.656Z,99.90
2018-03-15T05:04:42.248Z,99.90
2018-03-15T05:05:14.749Z,99.90
2018-03-15T05:05:47.274Z,99.90
2018-03-15T05:06:19.840Z,99.90
2018-03-15T05:06:52.353Z,99.90
2018-03-15T05:07:24.862Z,99.90
2018-03-15T05:07:57.483Z,99.90
2018-03-15T05:08:30.098Z,99.90
2018-03-15T05:09:02.764Z,99.90
2018-03-15T05:09:35.281Z,99.90
2018-03-15T05:10:07.802Z,99.90
2018-03-15T05:10:40.323Z,99.90
2018-03-15T05:11:13.015Z,99.90
2018-03-15T05:11:45.515Z,99.90
2018-03-15T05:12:18.015Z,99.90
2018-03-15T05:12:50.521Z,99.90
2018-03-15T05:13:23.034Z,99.90
2018-03-15T05:13:56.311Z,99.90
2018-03-15T05:14:28.898Z,99.90
2018-03-15T05:15:01.417Z,99.90
2018-03-15T05:15:34.974Z,99.90
2018-03-15T05:16:07.651Z,99.90
2018-03-15T05:16:40.385Z,99.90
2018-03-15T05:17:12.898Z,99.90
2018-03-15T05:17:45.428Z,99.90
2018-03-15T05:18:18.037Z,99.90
2018-03-15T05:18:50.546Z,99.90
2018-03-15T05:19:23.161Z,99.90
2018-03-15T05:19:55.679Z,99.90
2018-03-15T05:20:28.344Z,99.90
2018-03-15T05:21:00.862Z,99.90
2018-03-15T05:21:33.570Z,99.90
2018-03-15T05:22:06.419Z,99.90
2018-03-15T05:22:38.946Z,99.90
2018-03-15T05:23:11.456Z,99.90
2018-03-15T05:23:43.966Z,99.90
2018-03-15T05:24:16.470Z,99.90
2018-03-15T05:24:49.756Z,99.90
2018-03-15T05:25:22.267Z,99.90
2018-03-15T05:25:54.803Z,99.90
2018-03-15T05:26:27.311Z,99.90
2018-03-15T05:27:00.008Z,99.90
2018-03-15T05:27:32.544Z,99.90
2018-03-15T05:28:05.074Z,99.90
2018-03-15T05:28:37.623Z,99.90
2018-03-15T05:29:10.173Z,99.90
2018-03-15T05:29:42.679Z,99.90
2018-03-15T05:30:15.181Z,99.90
2018-03-15T05:30:47.685Z,99.90
2018-03-15T05:31:20.197Z,99.90
2018-03-15T05:31:52.721Z,99.90
2018-03-15T05:32:25.231Z,99.90
2018-03-15T05:32:58.506Z,99.90
2018-03-15T05:33:31.019Z,99.90
2018-03-15T05:34:03.532Z,99.90
2018-03-15T05:34:36.813Z,99.90
2018-03-15T05:35:09.317Z,99.90
2018-03-15T05:35:41.819Z,99.90
2018-03-15T05:36:14.327Z,99.90
2018-03-15T05:36:46.835Z,99.90
2018-03-15T05:37:19.380Z,99.90
2018-03-15T05:37:51.883Z,99.90
2018-03-15T05:38:24.418Z,99.90
2018-03-15T05:38:56.988Z,99.90
2018-03-15T05:39:29.520Z,99.90
2018-03-15T05:40:02.034Z,99.90
2018-03-15T05:40:34.547Z,99.90
2018-03-15T05:41:07.082Z,99.90
2018-03-15T05:41:39.673Z,99.90
2018-03-15T05:42:12.202Z,99.90
2018-03-15T05:42:44.730Z,99.90
2018-03-15T05:43:17.242Z,99.90
2018-03-15T05:43:49.777Z,99.90
2018-03-15T05:44:22.295Z,99.90
2018-03-15T05:44:54.859Z,99.90
2018-03-15T05:45:28.264Z,99.90
2018-03-15T05:46:00.765Z,99.90
2018-03-15T05:46:33.490Z,99.90
2018-03-15T05:47:06.586Z,99.90
2018-03-15T05:47:39.097Z,99.90
2018-03-15T05:48:11.610Z,99.90
2018-03-15T05:48:44.134Z,99.90
2018-03-15T05:49:16.668Z,99.90
2018-03-15T05:49:49.174Z,99.90
2018-03-15T05:50:21.749Z,99.90
2018-03-15T05:50:54.378Z,99.90
2018-03-15T05:51:26.921Z,99.90
2018-03-15T05:51:59.460Z,99.90
2018-03-15T05:52:32.004Z,99.90
2018-03-15T05:53:04.554Z,99.90
2018-03-15T05:53:37.069Z,99.90
2018-03-15T05:54:10.355Z,99.90
2018-03-15T05:54:43.460Z,99.90
2018-03-15T05:55:15.975Z,99.90
2018-03-15T05:55:48.497Z,99.90
2018-03-15T05:56:21.006Z,99.90
2018-03-15T05:56:53.533Z,99.90
2018-03-15T05:57:26.043Z,99.90
2018-03-15T05:57:58.572Z,99.90
2018-03-15T05:58:31.069Z,99.90
2018-03-15T05:59:03.578Z,99.90
2018-03-15T05:59:36.244Z,99.90
2018-03-15T06:00:08.766Z,99.90
2018-03-15T06:00:42.180Z,99.90
2018-03-15T06:01:14.701Z,99.90
2018-03-15T06:01:47.310Z,99.90
2018-03-15T06:02:20.066Z,99.90
2018-03-15T06:02:52.595Z,99.90
2018-03-15T06:03:25.150Z,99.90
2018-03-15T06:03:58.433Z,99.90
2018-03-15T06:04:30.948Z,99.90
2018-03-15T06:05:03.454Z,99.90
2018-03-15T06:05:37.102Z,99.90
2018-03-15T06:06:09.664Z,99.90
2018-03-15T06:06:42.561Z,99.90
2018-03-15T06:07:15.090Z,99.90
2018-03-15T06:07:47.664Z,99.90
2018-03-15T06:08:20.237Z,99.90
2018-03-15T06:08:52.736Z,99.90
2018-03-15T06:09:25.282Z,99.90
2018-03-15T06:09:57.778Z,99.90
2018-03-15T06:10:30.289Z,99.90
2018-03-15T06:11:02.823Z,99.90
2018-03-15T06:11:36.101Z,99.90
2018-03-15T06:12:08.633Z,99.90
2018-03-15T06:12:41.151Z,99.90
2018-03-15T06:13:13.708Z,99.90
2018-03-15T06:13:46.228Z,99.90
2018-03-15T06:14:18.768Z,99.90
2018-03-15T06:14:51.304Z,99.90
2018-03-15T06:15:24.057Z,99.90
2018-03-15T06:15:56.568Z,99.90
2018-03-15T06:16:29.304Z,99.90
2018-03-15T06:17:01.802Z,99.90
2018-03-15T06:17:34.323Z,99.90
2018-03-15T06:18:06.866Z,99.90
2018-03-15T06:18:40.276Z,99.90
2018-03-15T06:19:12.868Z,99.90
2018-03-15T06:19:45.404Z,99.90
2018-03-15T06:20:18.039Z,99.90
2018-03-15T06:20:50.553Z,99.90
2018-03-15T06:21:23.096Z,99.90
2018-03-15T06:21:55.860Z,99.90
2018-03-15T06:22:28.416Z,99.90
2018-03-15T06:23:00.922Z,99.90
2018-03-15T06:23:33.444Z,99.90
2018-03-15T06:24:05.959Z,99.90
2018-03-15T06:24:38.506Z,99.90
2018-03-15T06:25:11.029Z,99.90
2018-03-15T06:25:43.541Z,99.90
2018-03-15T06:26:16.075Z,99.90
2018-03-15T06:26:48.585Z,99.90
2018-03-15T06:27:21.114Z,99.90
2018-03-15T06:27:53.671Z,99.90
2018-03-15T06:28:26.180Z,99.90
2018-03-15T06:28:58.707Z,99.90
2018-03-15T06:29:31.224Z,99.90
2018-03-15T06:30:04.490Z,99.90
2018-03-15T06:30:37.021Z,99.90
2018-03-15T06:31:09.522Z,99.90
2018-03-15T06:31:42.939Z,99.90
2018-03-15T06:32:15.648Z,99.90
2018-03-15T06:32:48.262Z,99.90
2018-03-15T06:33:20.790Z,99.90
2018-03-15T06:33:53.383Z,99.90
2018-03-15T06:34:26.454Z,99.90
2018-03-15T06:34:58.983Z,99.90
2018-03-15T06:35:31.500Z,99.90
2018-03-15T06:36:04.010Z,99.90
2018-03-15T06:36:36.513Z,99.90
2018-03-15T06:37:09.030Z,99.90
2018-03-15T06:37:41.538Z,99.90
2018-03-15T06:38:14.842Z,99.90
2018-03-15T06:38:47.353Z,99.90
2018-03-15T06:39:19.946Z,99.90
2018-03-15T06:39:52.471Z,99.90
2018-03-15T06:40:25.003Z,99.90
2018-03-15T06:40:57.526Z,99.90
2018-03-15T06:41:30.805Z,99.90
2018-03-15T06:42:04.096Z,99.90
2018-03-15T06:42:36.995Z,99.90
2018-03-15T06:43:09.598Z,99.90
2018-03-15T06:43:42.118Z,99.90
2018-03-15T06:44:14.625Z,99.90
2018-03-15T06:44:47.166Z,99.90
2018-03-15T06:45:19.678Z,99.90
2018-03-15T06:45:52.197Z,99.90
2018-03-15T06:46:24.726Z,99.90
2018-03-15T06:46:57.301Z,99.90
2018-03-15T06:47:29.837Z,99.90
2018-03-15T06:48:05.553Z,99.90
2018-03-15T06:48:38.100Z,99.90
2018-03-15T06:49:10.618Z,99.90
2018-03-15T06:49:43.144Z,99.90
2018-03-15T06:50:16.570Z,99.90
2018-03-15T06:50:49.123Z,99.90
2018-03-15T06:51:21.638Z,99.90
2018-03-15T06:51:54.158Z,99.90
2018-03-15T06:52:26.748Z,99.90
2018-03-15T06:52:59.285Z,99.90
2018-03-15T06:53:31.850Z,99.90
2018-03-15T06:54:04.381Z,99.90
2018-03-15T06:54:36.902Z,99.90
2018-03-15T06:55:09.413Z,99.90
2018-03-15T06:55:44.188Z,99.90
2018-03-15T06:56:16.694Z,99.90
2018-03-15T06:56:49.973Z,99.90
2018-03-15T06:57:22.476Z,99.90
2018-03-15T06:57:55.005Z,99.90
2018-03-15T06:58:28.274Z,99.90
2018-03-15T06:59:00.815Z,99.90
2018-03-15T06:59:33.321Z,99.90
2018-03-15T07:00:05.856Z,99.90
2018-03-15T07:00:39.144Z,99.90
2018-03-15T07:01:11.656Z,99.90